KCMX/CMX METAR and TAF weather

Enter ICAO airport designator
Station Type Date Time Source
KCMX METAR 2019/07/17 17:53 UTC NOAA

KCMX 171753Z AUTO 08008KT 10SM CLR 23/16 A2997 RMK AO2 SLP146 T02330156 10244 20178 56003


Station Type Date Time Source
KCMX Decoded METAR 2019/07/17 17:53 UTC NOAA

HANCOCK HOUGHTON CTY. MEMO, MI, United States (KCMX) 47-10N 088-29W 326M
Jul 17, 2019 - 01:53 PM EDT / 2019.07.17 1753 UTC
Wind: from the E (080 degrees) at 9 MPH (8 KT):0
Visibility: 10 mile(s):0
Sky conditions: clear
Temperature: 73.9 F (23.3 C)
Dew Point: 60.1 F (15.6 C)
Relative Humidity: 61%
Pressure (altimeter): 29.97 in. Hg (1014 hPa)
Pressure tendency: 0.01 inches (0.3 hPa) lower than three hours ago
ob: KCMX 171753Z AUTO 08008KT 10SM CLR 23/16 A2997 RMK AO2 SLP146 T02330156 10244 20178 56003
cycle: 18

Station Type Date Time Source
KCMX TAF 2019/07/17 18:40 UTC NOAA

TAF KCMX 171738Z 1718/1818 10010KT P6SM SCT130
FM180200 12005KT P6SM VCTS BKN040CB
FM180500 16006KT 4SM -TSRA BKN035CB
FM180900 16005KT 6SM BR SCT011
FM181400 22008KT P6SM SCT035

Example: see airport list